sensor_id;sensor_type;location;lat;lon;timestamp;pressure;altitude;pressure_sealevel;temperature
82638;BMP280;72318;36.628;-121.932;2023-12-20T00:00:15;100521.00;;;16.25
82638;BMP280;72318;36.628;-121.932;2023-12-20T00:02:42;100537.06;;;16.25
82638;BMP280;72318;36.628;-121.932;2023-12-20T00:05:13;100519.84;;;16.26
82638;BMP280;72318;36.628;-121.932;2023-12-20T00:07:40;100510.16;;;16.32
82638;BMP280;72318;36.628;-121.932;2023-12-20T00:10:06;100510.78;;;16.39
82638;BMP280;72318;36.628;-121.932;2023-12-20T00:12:33;100509.78;;;16.14
82638;BMP280;72318;36.628;-121.932;2023-12-20T00:14:59;100518.94;;;16.13
82638;BMP280;72318;36.628;-121.932;2023-12-20T00:17:25;100522.72;;;16.15
82638;BMP280;72318;36.628;-121.932;2023-12-20T00:19:51;100520.78;;;16.35
82638;BMP280;72318;36.628;-121.932;2023-12-20T00:22:17;100515.50;;;16.32
82638;BMP280;72318;36.628;-121.932;2023-12-20T00:24:43;100519.97;;;16.38
82638;BMP280;72318;36.628;-121.932;2023-12-20T00:27:10;100510.97;;;16.29
82638;BMP280;72318;36.628;-121.932;2023-12-20T00:29:36;100511.59;;;15.98
82638;BMP280;72318;36.628;-121.932;2023-12-20T00:32:02;100511.56;;;16.01
82638;BMP280;72318;36.628;-121.932;2023-12-20T00:34:28;100498.31;;;16.13
82638;BMP280;72318;36.628;-121.932;2023-12-20T00:36:54;100497.06;;;15.99
82638;BMP280;72318;36.628;-121.932;2023-12-20T00:39:21;100494.53;;;16.11
82638;BMP280;72318;36.628;-121.932;2023-12-20T00:41:47;100499.00;;;15.98
82638;BMP280;72318;36.628;-121.932;2023-12-20T00:44:13;100507.56;;;15.90
82638;BMP280;72318;36.628;-121.932;2023-12-20T00:46:39;100506.72;;;15.73
82638;BMP280;72318;36.628;-121.932;2023-12-20T00:49:05;100498.91;;;15.63
82638;BMP280;72318;36.628;-121.932;2023-12-20T00:51:32;100501.38;;;15.73
82638;BMP280;72318;36.628;-121.932;2023-12-20T00:53:58;100494.31;;;15.63
82638;BMP280;72318;36.628;-121.932;2023-12-20T00:56:24;100487.53;;;15.59
82638;BMP280;72318;36.628;-121.932;2023-12-20T00:58:50;100495.00;;;15.48
82638;BMP280;72318;36.628;-121.932;2023-12-20T01:01:17;100497.81;;;15.60
82638;BMP280;72318;36.628;-121.932;2023-12-20T01:03:43;100495.72;;;15.48
82638;BMP280;72318;36.628;-121.932;2023-12-20T01:06:09;100494.22;;;15.47
82638;BMP280;72318;36.628;-121.932;2023-12-20T01:08:37;100491.66;;;15.18
82638;BMP280;72318;36.628;-121.932;2023-12-20T01:11:06;100499.94;;;15.26
82638;BMP280;72318;36.628;-121.932;2023-12-20T01:13:33;100504.09;;;15.27
82638;BMP280;72318;36.628;-121.932;2023-12-20T01:15:59;100505.34;;;14.97
82638;BMP280;72318;36.628;-121.932;2023-12-20T01:18:25;100507.69;;;15.18
82638;BMP280;72318;36.628;-121.932;2023-12-20T01:20:51;100505.59;;;15.06
82638;BMP280;72318;36.628;-121.932;2023-12-20T01:23:17;100497.63;;;15.02
82638;BMP280;72318;36.628;-121.932;2023-12-20T01:25:43;100506.63;;;14.89
82638;BMP280;72318;36.628;-121.932;2023-12-20T01:28:10;100497.84;;;14.88
82638;BMP280;72318;36.628;-121.932;2023-12-20T01:30:36;100506.63;;;14.89
82638;BMP280;72318;36.628;-121.932;2023-12-20T01:33:02;100491.41;;;14.86
82638;BMP280;72318;36.628;-121.932;2023-12-20T01:35:28;100496.38;;;14.84
82638;BMP280;72318;36.628;-121.932;2023-12-20T01:37:55;100494.59;;;14.74
82638;BMP280;72318;36.628;-121.932;2023-12-20T01:40:24;100499.03;;;14.84
82638;BMP280;72318;36.628;-121.932;2023-12-20T01:43:07;100501.56;;;14.68
82638;BMP280;72318;36.628;-121.932;2023-12-20T01:45:34;100499.53;;;15.02
82638;BMP280;72318;36.628;-121.932;2023-12-20T01:48:01;100488.38;;;14.84
82638;BMP280;72318;36.628;-121.932;2023-12-20T01:50:28;100495.47;;;14.67
82638;BMP280;72318;36.628;-121.932;2023-12-20T01:53:00;100507.34;;;14.63
82638;BMP280;72318;36.628;-121.932;2023-12-20T01:55:32;100509.25;;;14.66
82638;BMP280;72318;36.628;-121.932;2023-12-20T01:57:59;100504.06;;;14.52
82638;BMP280;72318;36.628;-121.932;2023-12-20T02:00:28;100495.25;;;14.55
82638;BMP280;72318;36.628;-121.932;2023-12-20T02:02:54;100493.06;;;14.76
82638;BMP280;72318;36.628;-121.932;2023-12-20T02:05:21;100502.69;;;14.70
82638;BMP280;72318;36.628;-121.932;2023-12-20T02:07:48;100491.91;;;14.51
82638;BMP280;72318;36.628;-121.932;2023-12-20T02:10:15;100499.56;;;14.49
82638;BMP280;72318;36.628;-121.932;2023-12-20T02:12:41;100506.78;;;14.48
82638;BMP280;72318;36.628;-121.932;2023-12-20T02:15:08;100504.31;;;14.34
82638;BMP280;72318;36.628;-121.932;2023-12-20T02:17:34;100504.75;;;14.59
82638;BMP280;72318;36.628;-121.932;2023-12-20T02:20:00;100514.75;;;14.52
82638;BMP280;72318;36.628;-121.932;2023-12-20T02:22:26;100502.00;;;14.36
82638;BMP280;72318;36.628;-121.932;2023-12-20T02:24:53;100512.13;;;14.48
82638;BMP280;72318;36.628;-121.932;2023-12-20T02:27:19;100509.94;;;14.40
82638;BMP280;72318;36.628;-121.932;2023-12-20T02:29:47;100511.94;;;14.62
82638;BMP280;72318;36.628;-121.932;2023-12-20T02:32:14;100512.44;;;14.54
82638;BMP280;72318;36.628;-121.932;2023-12-20T02:34:40;100506.91;;;14.38
82638;BMP280;72318;36.628;-121.932;2023-12-20T02:37:06;100519.25;;;14.55
82638;BMP280;72318;36.628;-121.932;2023-12-20T02:39:32;100520.00;;;14.59
82638;BMP280;72318;36.628;-121.932;2023-12-20T02:41:59;100523.59;;;14.45
82638;BMP280;72318;36.628;-121.932;2023-12-20T02:44:25;100517.16;;;14.43
82638;BMP280;72318;36.628;-121.932;2023-12-20T02:46:51;100518.31;;;14.42
82638;BMP280;72318;36.628;-121.932;2023-12-20T02:49:17;100514.31;;;14.57
82638;BMP280;72318;36.628;-121.932;2023-12-20T02:51:44;100515.78;;;14.28
82638;BMP280;72318;36.628;-121.932;2023-12-20T02:54:10;100512.69;;;14.33
82638;BMP280;72318;36.628;-121.932;2023-12-20T02:56:36;100506.91;;;14.38
82638;BMP280;72318;36.628;-121.932;2023-12-20T02:59:02;100511.91;;;14.36
82638;BMP280;72318;36.628;-121.932;2023-12-20T03:01:31;100513.94;;;14.25
82638;BMP280;72318;36.628;-121.932;2023-12-20T03:03:57;100505.03;;;14.35
82638;BMP280;72318;36.628;-121.932;2023-12-20T03:06:24;100504.38;;;14.27
82638;BMP280;72318;36.628;-121.932;2023-12-20T03:08:50;100502.06;;;14.29
82638;BMP280;72318;36.628;-121.932;2023-12-20T03:11:17;100506.19;;;14.34
82638;BMP280;72318;36.628;-121.932;2023-12-20T03:13:43;100494.00;;;14.36
82638;BMP280;72318;36.628;-121.932;2023-12-20T03:16:13;100489.41;;;14.37
82638;BMP280;72318;36.628;-121.932;2023-12-20T03:18:39;100491.34;;;14.36
82638;BMP280;72318;36.628;-121.932;2023-12-20T03:21:06;100505.22;;;14.21
82638;BMP280;72318;36.628;-121.932;2023-12-20T03:23:32;100497.31;;;14.44
82638;BMP280;72318;36.628;-121.932;2023-12-20T03:25:59;100495.28;;;14.25
82638;BMP280;72318;36.628;-121.932;2023-12-20T03:28:27;100494.28;;;14.12
82638;BMP280;72318;36.628;-121.932;2023-12-20T03:30:53;100495.28;;;14.25
82638;BMP280;72318;36.628;-121.932;2023-12-20T03:33:20;100501.22;;;14.36
82638;BMP280;72318;36.628;-121.932;2023-12-20T03:35:46;100489.94;;;14.25
82638;BMP280;72318;36.628;-121.932;2023-12-20T03:38:12;100483.09;;;14.24
82638;BMP280;72318;36.628;-121.932;2023-12-20T03:40:38;100499.09;;;14.54
82638;BMP280;72318;36.628;-121.932;2023-12-20T03:43:05;100505.16;;;14.58
82638;BMP280;72318;36.628;-121.932;2023-12-20T03:45:31;100499.44;;;14.56
82638;BMP280;72318;36.628;-121.932;2023-12-20T03:47:57;100505.75;;;14.69
82638;BMP280;72318;36.628;-121.932;2023-12-20T03:50:23;100510.78;;;14.63
82638;BMP280;72318;36.628;-121.932;2023-12-20T03:52:49;100506.97;;;14.64
82638;BMP280;72318;36.628;-121.932;2023-12-20T03:55:16;100509.25;;;14.66
82638;BMP280;72318;36.628;-121.932;2023-12-20T03:57:42;100509.25;;;14.66
82638;BMP280;72318;36.628;-121.932;2023-12-20T04:00:09;100497.88;;;14.58
82638;BMP280;72318;36.628;-121.932;2023-12-20T04:02:39;100498.06;;;14.74
82638;BMP280;72318;36.628;-121.932;2023-12-20T04:05:06;100503.03;;;14.72
82638;BMP280;72318;36.628;-121.932;2023-12-20T04:07:33;100518.63;;;14.74
82638;BMP280;72318;36.628;-121.932;2023-12-20T04:10:00;100516.84;;;14.94
82638;BMP280;72318;36.628;-121.932;2023-12-20T04:12:29;100506.63;;;14.89
82638;BMP280;72318;36.628;-121.932;2023-12-20T04:14:55;100517.94;;;14.96
82638;BMP280;72318;36.628;-121.932;2023-12-20T04:17:22;100520.34;;;15.14
82638;BMP280;72318;36.628;-121.932;2023-12-20T04:19:51;100521.59;;;15.06
82638;BMP280;72318;36.628;-121.932;2023-12-20T04:22:18;100519.59;;;15.13
82638;BMP280;72318;36.628;-121.932;2023-12-20T04:24:44;100515.88;;;15.30
82638;BMP280;72318;36.628;-121.932;2023-12-20T04:27:11;100521.66;;;15.02
82638;BMP280;72318;36.628;-121.932;2023-12-20T04:29:37;100506.94;;;14.91
82638;BMP280;72318;36.628;-121.932;2023-12-20T04:32:04;100520.38;;;14.84
82638;BMP280;72318;36.628;-121.932;2023-12-20T04:34:31;100514.22;;;14.90
82638;BMP280;72318;36.628;-121.932;2023-12-20T04:36:57;100533.72;;;14.84
82638;BMP280;72318;36.628;-121.932;2023-12-20T04:39:23;100528.81;;;14.82
82638;BMP280;72318;36.628;-121.932;2023-12-20T04:41:49;100531.81;;;14.84
82638;BMP280;72318;36.628;-121.932;2023-12-20T04:44:16;100538.25;;;14.90
82638;BMP280;72318;36.628;-121.932;2023-12-20T04:46:42;100515.44;;;14.86
82638;BMP280;72318;36.628;-121.932;2023-12-20T04:49:08;100523.25;;;14.96
82638;BMP280;72318;36.628;-121.932;2023-12-20T04:51:35;100520.28;;;14.91
82638;BMP280;72318;36.628;-121.932;2023-12-20T04:54:02;100524.34;;;14.76
82638;BMP280;72318;36.628;-121.932;2023-12-20T04:56:28;100528.31;;;14.91
82638;BMP280;72318;36.628;-121.932;2023-12-20T04:58:54;100516.81;;;14.67
82638;BMP280;72318;36.628;-121.932;2023-12-20T05:01:20;100514.72;;;14.82
82638;BMP280;72318;36.628;-121.932;2023-12-20T05:03:47;100525.47;;;14.75
82638;BMP280;72318;36.628;-121.932;2023-12-20T05:06:13;100527.47;;;14.67
82638;BMP280;72318;36.628;-121.932;2023-12-20T05:08:40;100533.13;;;14.73
82638;BMP280;72318;36.628;-121.932;2023-12-20T05:11:06;100538.75;;;14.78
82638;BMP280;72318;36.628;-121.932;2023-12-20T05:13:33;100531.97;;;14.74
82638;BMP280;72318;36.628;-121.932;2023-12-20T05:15:59;100535.06;;;14.99
82638;BMP280;72318;36.628;-121.932;2023-12-20T05:18:25;100534.00;;;14.93
82638;BMP280;72318;36.628;-121.932;2023-12-20T05:20:51;100525.50;;;15.01
82638;BMP280;72318;36.628;-121.932;2023-12-20T05:23:18;100521.41;;;14.93
82638;BMP280;72318;36.628;-121.932;2023-12-20T05:25:46;100519.72;;;15.03
82638;BMP280;72318;36.628;-121.932;2023-12-20T05:28:12;100521.19;;;15.07
82638;BMP280;72318;36.628;-121.932;2023-12-20T05:30:38;100524.19;;;15.13
82638;BMP280;72318;36.628;-121.932;2023-12-20T05:33:07;100525.31;;;15.12
82638;BMP280;72318;36.628;-121.932;2023-12-20T05:35:33;100520.22;;;15.21
82638;BMP280;72318;36.628;-121.932;2023-12-20T05:37:59;100527.34;;;15.04
82638;BMP280;72318;36.628;-121.932;2023-12-20T05:40:26;100538.50;;;14.99
82638;BMP280;72318;36.628;-121.932;2023-12-20T05:42:52;100533.63;;;14.91
82638;BMP280;72318;36.628;-121.932;2023-12-20T05:45:18;100524.13;;;14.90
82638;BMP280;72318;36.628;-121.932;2023-12-20T05:47:45;100519.72;;;15.03
82638;BMP280;72318;36.628;-121.932;2023-12-20T05:50:11;100528.06;;;14.82
82638;BMP280;72318;36.628;-121.932;2023-12-20T05:52:37;100528.81;;;14.82
82638;BMP280;72318;36.628;-121.932;2023-12-20T05:55:04;100524.59;;;14.85
82638;BMP280;72318;36.628;-121.932;2023-12-20T05:57:30;100529.88;;;14.88
82638;BMP280;72318;36.628;-121.932;2023-12-20T05:59:56;100514.81;;;15.01
82638;BMP280;72318;36.628;-121.932;2023-12-20T06:02:22;100518.22;;;15.02
82638;BMP280;72318;36.628;-121.932;2023-12-20T06:04:49;100521.69;;;14.76
82638;BMP280;72318;36.628;-121.932;2023-12-20T06:07:16;100521.09;;;14.61
82638;BMP280;72318;36.628;-121.932;2023-12-20T06:09:42;100518.25;;;14.72
82638;BMP280;72318;36.628;-121.932;2023-12-20T06:12:08;100519.84;;;14.69
82638;BMP280;72318;36.628;-121.932;2023-12-20T06:14:35;100521.41;;;14.93
82638;BMP280;72318;36.628;-121.932;2023-12-20T06:17:01;100512.84;;;14.79
82638;BMP280;72318;36.628;-121.932;2023-12-20T06:19:27;100504.59;;;14.70
82638;BMP280;72318;36.628;-121.932;2023-12-20T06:21:54;100499.00;;;14.87
82638;BMP280;72318;36.628;-121.932;2023-12-20T06:24:20;100501.03;;;14.80
82638;BMP280;72318;36.628;-121.932;2023-12-20T06:26:47;100505.41;;;14.67
82638;BMP280;72318;36.628;-121.932;2023-12-20T06:29:13;100510.19;;;14.79
82638;BMP280;72318;36.628;-121.932;2023-12-20T06:31:39;100507.03;;;14.84
82638;BMP280;72318;36.628;-121.932;2023-12-20T06:34:05;100509.97;;;14.66
82638;BMP280;72318;36.628;-121.932;2023-12-20T06:36:32;100498.00;;;14.78
82638;BMP280;72318;36.628;-121.932;2023-12-20T06:38:58;100487.47;;;14.37
82638;BMP280;72318;36.628;-121.932;2023-12-20T06:41:24;100498.09;;;14.71
82638;BMP280;72318;36.628;-121.932;2023-12-20T06:43:50;100488.47;;;15.03
82638;BMP280;72318;36.628;-121.932;2023-12-20T06:46:18;100476.63;;;14.81
82638;BMP280;72318;36.628;-121.932;2023-12-20T06:48:44;100488.50;;;14.77
82638;BMP280;72318;36.628;-121.932;2023-12-20T06:51:15;100477.06;;;14.76
82638;BMP280;72318;36.628;-121.932;2023-12-20T06:53:42;100480.28;;;14.64
82638;BMP280;72318;36.628;-121.932;2023-12-20T06:56:10;100473.94;;;14.81
82638;BMP280;72318;36.628;-121.932;2023-12-20T06:58:36;100462.06;;;14.59
82638;BMP280;72318;36.628;-121.932;2023-12-20T07:01:03;100460.91;;;14.60
82638;BMP280;72318;36.628;-121.932;2023-12-20T07:03:30;100455.41;;;14.71
82638;BMP280;72318;36.628;-121.932;2023-12-20T07:05:56;100456.31;;;14.61
82638;BMP280;72318;36.628;-121.932;2023-12-20T07:08:22;100449.56;;;14.53
82638;BMP280;72318;36.628;-121.932;2023-12-20T07:10:48;100448.66;;;14.63
82638;BMP280;72318;36.628;-121.932;2023-12-20T07:13:14;100445.53;;;14.71
82638;BMP280;72318;36.628;-121.932;2023-12-20T07:15:41;100441.03;;;14.65
82638;BMP280;72318;36.628;-121.932;2023-12-20T07:18:07;100439.97;;;14.59
82638;BMP280;72318;36.628;-121.932;2023-12-20T07:20:33;100437.25;;;14.62
82638;BMP280;72318;36.628;-121.932;2023-12-20T07:22:59;100431.56;;;14.60
82638;BMP280;72318;36.628;-121.932;2023-12-20T07:25:26;100434.13;;;14.94
82638;BMP280;72318;36.628;-121.932;2023-12-20T07:27:52;100423.25;;;14.81
82638;BMP280;72318;36.628;-121.932;2023-12-20T07:30:18;100425.50;;;14.83
82638;BMP280;72318;36.628;-121.932;2023-12-20T07:32:44;100422.00;;;14.63
82638;BMP280;72318;36.628;-121.932;2023-12-20T07:35:10;100421.56;;;14.91
82638;BMP280;72318;36.628;-121.932;2023-12-20T07:37:37;100408.19;;;14.71
82638;BMP280;72318;36.628;-121.932;2023-12-20T07:40:03;100413.91;;;14.70
82638;BMP280;72318;36.628;-121.932;2023-12-20T07:42:29;100405.13;;;14.69
82638;BMP280;72318;36.628;-121.932;2023-12-20T07:44:55;100404.19;;;14.56
82638;BMP280;72318;36.628;-121.932;2023-12-20T07:47:22;100397.53;;;14.68
82638;BMP280;72318;36.628;-121.932;2023-12-20T07:49:49;100394.53;;;14.66
82638;BMP280;72318;36.628;-121.932;2023-12-20T07:52:19;100390.81;;;14.60
82638;BMP280;72318;36.628;-121.932;2023-12-20T07:54:47;100400.56;;;14.70
82638;BMP280;72318;36.628;-121.932;2023-12-20T07:57:13;100394.28;;;14.57
82638;BMP280;72318;36.628;-121.932;2023-12-20T07:59:40;100390.53;;;14.54
82638;BMP280;72318;36.628;-121.932;2023-12-20T08:02:06;100391.13;;;14.62
82638;BMP280;72318;36.628;-121.932;2023-12-20T08:04:32;100395.13;;;14.50
82638;BMP280;72318;36.628;-121.932;2023-12-20T08:06:58;100400.88;;;14.49
82638;BMP280;72318;36.628;-121.932;2023-12-20T08:09:26;100400.06;;;14.52
82638;BMP280;72318;36.628;-121.932;2023-12-20T08:11:52;100394.44;;;14.46
82638;BMP280;72318;36.628;-121.932;2023-12-20T08:14:18;100387.44;;;14.29
82638;BMP280;72318;36.628;-121.932;2023-12-20T08:16:44;100394.75;;;14.26
82638;BMP280;72318;36.628;-121.932;2023-12-20T08:19:10;100394.00;;;14.22
82638;BMP280;72318;36.628;-121.932;2023-12-20T08:21:36;100394.22;;;14.34
82638;BMP280;72318;36.628;-121.932;2023-12-20T08:24:03;100386.94;;;14.38
82638;BMP280;72318;36.628;-121.932;2023-12-20T08:26:29;100380.16;;;14.33
82638;BMP280;72318;36.628;-121.932;2023-12-20T08:28:55;100372.28;;;14.49
82638;BMP280;72318;36.628;-121.932;2023-12-20T08:31:21;100363.41;;;14.56
82638;BMP280;72318;36.628;-121.932;2023-12-20T08:33:49;100351.69;;;14.73
82638;BMP280;72318;36.628;-121.932;2023-12-20T08:36:15;100351.22;;;14.81
82638;BMP280;72318;36.628;-121.932;2023-12-20T08:38:43;100350.53;;;14.74
82638;BMP280;72318;36.628;-121.932;2023-12-20T08:41:09;100356.81;;;14.64
82638;BMP280;72318;36.628;-121.932;2023-12-20T08:43:36;100354.66;;;14.55
82638;BMP280;72318;36.628;-121.932;2023-12-20T08:46:02;100351.38;;;14.71
82638;BMP280;72318;36.628;-121.932;2023-12-20T08:48:29;100360.63;;;14.63
82638;BMP280;72318;36.628;-121.932;2023-12-20T08:50:55;100362.63;;;14.82
82638;BMP280;72318;36.628;-121.932;2023-12-20T08:53:21;100360.00;;;14.78
82638;BMP280;72318;36.628;-121.932;2023-12-20T08:55:47;100358.44;;;14.81
82638;BMP280;72318;36.628;-121.932;2023-12-20T08:58:14;100355.84;;;14.77
82638;BMP280;72318;36.628;-121.932;2023-12-20T09:00:40;100354.06;;;14.71
82638;BMP280;72318;36.628;-121.932;2023-12-20T09:03:06;100349.88;;;14.70
82638;BMP280;72318;36.628;-121.932;2023-12-20T09:05:32;100349.19;;;14.89
82638;BMP280;72318;36.628;-121.932;2023-12-20T09:07:59;100348.66;;;15.17
82638;BMP280;72318;36.628;-121.932;2023-12-20T09:10:25;100355.41;;;15.02
82638;BMP280;72318;36.628;-121.932;2023-12-20T09:12:52;100349.34;;;15.21
82638;BMP280;72318;36.628;-121.932;2023-12-20T09:15:26;100343.00;;;14.92
82638;BMP280;72318;36.628;-121.932;2023-12-20T09:17:52;100339.84;;;15.20
82638;BMP280;72318;36.628;-121.932;2023-12-20T09:20:19;100341.31;;;15.01
82638;BMP280;72318;36.628;-121.932;2023-12-20T09:22:45;100343.78;;;15.12
82638;BMP280;72318;36.628;-121.932;2023-12-20T09:25:12;100350.03;;;15.05
82638;BMP280;72318;36.628;-121.932;2023-12-20T09:27:40;100344.25;;;15.07
82638;BMP280;72318;36.628;-121.932;2023-12-20T09:30:07;100337.31;;;15.13
82638;BMP280;72318;36.628;-121.932;2023-12-20T09:32:33;100336.97;;;15.11
82638;BMP280;72318;36.628;-121.932;2023-12-20T09:35:00;100320.19;;;15.10
82638;BMP280;72318;36.628;-121.932;2023-12-20T09:37:27;100329.13;;;15.00
82638;BMP280;72318;36.628;-121.932;2023-12-20T09:39:53;100329.03;;;14.84
82638;BMP280;72318;36.628;-121.932;2023-12-20T09:42:48;100339.38;;;14.82
82638;BMP280;72318;36.628;-121.932;2023-12-20T09:45:20;100339.41;;;14.79
82638;BMP280;72318;36.628;-121.932;2023-12-20T09:47:51;100344.44;;;14.96
82638;BMP280;72318;36.628;-121.932;2023-12-20T09:50:20;100339.03;;;14.80
82638;BMP280;72318;36.628;-121.932;2023-12-20T09:52:57;100341.00;;;14.76
82638;BMP280;72318;36.628;-121.932;2023-12-20T09:55:25;100345.44;;;14.37
82638;BMP280;72318;36.628;-121.932;2023-12-20T09:57:52;100350.03;;;14.59
82638;BMP280;72318;36.628;-121.932;2023-12-20T10:00:19;100341.31;;;14.55
82638;BMP280;72318;36.628;-121.932;2023-12-20T10:02:52;100337.91;;;14.78
82638;BMP280;72318;36.628;-121.932;2023-12-20T10:05:27;100334.94;;;14.95
82638;BMP280;72318;36.628;-121.932;2023-12-20T10:07:53;100330.81;;;15.14
82638;BMP280;72318;36.628;-121.932;2023-12-20T10:10:19;100339.59;;;14.91
82638;BMP280;72318;36.628;-121.932;2023-12-20T10:13:09;100335.88;;;15.08
82638;BMP280;72318;36.628;-121.932;2023-12-20T10:15:36;100339.34;;;15.05
82638;BMP280;72318;36.628;-121.932;2023-12-20T10:18:03;100331.31;;;14.86
82638;BMP280;72318;36.628;-121.932;2023-12-20T10:20:30;100343.84;;;14.89
82638;BMP280;72318;36.628;-121.932;2023-12-20T10:22:58;100338.44;;;14.92
82638;BMP280;72318;36.628;-121.932;2023-12-20T10:25:24;100334.81;;;14.60
82638;BMP280;72318;36.628;-121.932;2023-12-20T10:28:11;100327.59;;;14.57
82638;BMP280;72318;36.628;-121.932;2023-12-20T10:30:39;100341.69;;;14.57
82638;BMP280;72318;36.628;-121.932;2023-12-20T10:33:06;100337.94;;;14.51
82638;BMP280;72318;36.628;-121.932;2023-12-20T10:35:34;100336.13;;;14.22
82638;BMP280;72318;36.628;-121.932;2023-12-20T10:38:03;100323.16;;;14.24
82638;BMP280;72318;36.628;-121.932;2023-12-20T10:40:32;100328.59;;;14.43
82638;BMP280;72318;36.628;-121.932;2023-12-20T10:43:01;100333.53;;;14.19
82638;BMP280;72318;36.628;-121.932;2023-12-20T10:45:28;100336.50;;;14.21
82638;BMP280;72318;36.628;-121.932;2023-12-20T10:47:54;100335.66;;;14.27
82638;BMP280;72318;36.628;-121.932;2023-12-20T10:50:21;100332.91;;;14.34
82638;BMP280;72318;36.628;-121.932;2023-12-20T10:52:47;100338.13;;;14.41
82638;BMP280;72318;36.628;-121.932;2023-12-20T10:55:14;100338.59;;;14.36
82638;BMP280;72318;36.628;-121.932;2023-12-20T10:57:41;100319.66;;;14.53
82638;BMP280;72318;36.628;-121.932;2023-12-20T11:00:09;100330.44;;;14.46
82638;BMP280;72318;36.628;-121.932;2023-12-20T11:02:40;100331.59;;;14.19
82638;BMP280;72318;36.628;-121.932;2023-12-20T11:07:55;100319.81;;;14.43
82638;BMP280;72318;36.628;-121.932;2023-12-20T11:13:44;100305.50;;;14.33
82638;BMP280;72318;36.628;-121.932;2023-12-20T11:16:14;100297.72;;;14.42
82638;BMP280;72318;36.628;-121.932;2023-12-20T11:18:41;100303.38;;;14.22
82638;BMP280;72318;36.628;-121.932;2023-12-20T11:21:08;100293.94;;;14.17
82638;BMP280;72318;36.628;-121.932;2023-12-20T11:23:35;100302.50;;;14.28
82638;BMP280;72318;36.628;-121.932;2023-12-20T11:26:02;100307.66;;;14.42
82638;BMP280;72318;36.628;-121.932;2023-12-20T11:28:29;100294.03;;;14.36
82638;BMP280;72318;36.628;-121.932;2023-12-20T11:31:01;100298.31;;;14.30
82638;BMP280;72318;36.628;-121.932;2023-12-20T11:33:39;100287.09;;;14.16
82638;BMP280;72318;36.628;-121.932;2023-12-20T11:36:16;100287.47;;;14.41
82638;BMP280;72318;36.628;-121.932;2023-12-20T11:38:57;100275.13;;;14.27
82638;BMP280;72318;36.628;-121.932;2023-12-20T11:41:23;100289.38;;;14.18
82638;BMP280;72318;36.628;-121.932;2023-12-20T11:43:53;100275.50;;;14.26
82638;BMP280;72318;36.628;-121.932;2023-12-20T11:46:20;100290.88;;;14.19
82638;BMP280;72318;36.628;-121.932;2023-12-20T11:48:47;100294.41;;;14.12
82638;BMP280;72318;36.628;-121.932;2023-12-20T11:51:14;100291.25;;;14.17
82638;BMP280;72318;36.628;-121.932;2023-12-20T11:53:41;100291.50;;;14.26
82638;BMP280;72318;36.628;-121.932;2023-12-20T11:56:10;100291.81;;;14.05
82638;BMP280;72318;36.628;-121.932;2023-12-20T11:58:38;100288.00;;;14.06
82638;BMP280;72318;36.628;-121.932;2023-12-20T12:01:05;100287.41;;;13.95
82638;BMP280;72318;36.628;-121.932;2023-12-20T12:03:33;100289.06;;;14.12
82638;BMP280;72318;36.628;-121.932;2023-12-20T12:05:59;100301.06;;;14.24
82638;BMP280;72318;36.628;-121.932;2023-12-20T12:08:26;100292.28;;;14.00
82638;BMP280;72318;36.628;-121.932;2023-12-20T12:10:52;100297.59;;;14.27
82638;BMP280;72318;36.628;-121.932;2023-12-20T12:13:19;100297.38;;;14.18
82638;BMP280;72318;36.628;-121.932;2023-12-20T12:15:45;100314.78;;;14.26
82638;BMP280;72318;36.628;-121.932;2023-12-20T12:18:18;100300.69;;;14.25
82638;BMP280;72318;36.628;-121.932;2023-12-20T12:20:44;100280.66;;;14.14
82638;BMP280;72318;36.628;-121.932;2023-12-20T12:23:11;100277.81;;;14.01
82638;BMP280;72318;36.628;-121.932;2023-12-20T12:25:37;100277.88;;;14.21
82638;BMP280;72318;36.628;-121.932;2023-12-20T12:28:04;100262.28;;;14.19
82638;BMP280;72318;36.628;-121.932;2023-12-20T12:30:31;100275.94;;;13.98
82638;BMP280;72318;36.628;-121.932;2023-12-20T12:32:57;100262.06;;;14.10
82638;BMP280;72318;36.628;-121.932;2023-12-20T12:35:26;100266.13;;;14.18
82638;BMP280;72318;36.628;-121.932;2023-12-20T12:37:52;100275.84;;;14.28
82638;BMP280;72318;36.628;-121.932;2023-12-20T12:40:19;100252.13;;;14.14
82638;BMP280;72318;36.628;-121.932;2023-12-20T12:42:45;100245.03;;;14.27
82638;BMP280;72318;36.628;-121.932;2023-12-20T12:45:12;100251.06;;;14.08
82638;BMP280;72318;36.628;-121.932;2023-12-20T12:47:39;100267.63;;;14.19
82638;BMP280;72318;36.628;-121.932;2023-12-20T12:50:06;100252.06;;;14.40
82638;BMP280;72318;36.628;-121.932;2023-12-20T12:52:32;100260.25;;;14.30
82638;BMP280;72318;36.628;-121.932;2023-12-20T12:54:58;100274.94;;;14.38
82638;BMP280;72318;36.628;-121.932;2023-12-20T12:57:25;100267.34;;;14.14
82638;BMP280;72318;36.628;-121.932;2023-12-20T12:59:51;100263.34;;;14.02
82638;BMP280;72318;36.628;-121.932;2023-12-20T13:02:17;100249.19;;;14.05
82638;BMP280;72318;36.628;-121.932;2023-12-20T13:04:44;100241.19;;;14.05
82638;BMP280;72318;36.628;-121.932;2023-12-20T13:07:10;100254.72;;;14.18
82638;BMP280;72318;36.628;-121.932;2023-12-20T13:09:37;100259.03;;;14.08
82638;BMP280;72318;36.628;-121.932;2023-12-20T13:12:05;100258.13;;;14.18
82638;BMP280;72318;36.628;-121.932;2023-12-20T13:14:35;100268.09;;;14.14
82638;BMP280;72318;36.628;-121.932;2023-12-20T13:17:04;100264.03;;;14.06
82638;BMP280;72318;36.628;-121.932;2023-12-20T13:19:31;100257.75;;;14.20
82638;BMP280;72318;36.628;-121.932;2023-12-20T13:21:58;100253.22;;;14.17
82638;BMP280;72318;36.628;-121.932;2023-12-20T13:24:32;100250.16;;;14.15
82638;BMP280;72318;36.628;-121.932;2023-12-20T13:26:58;100247.50;;;14.41